ソウル/仁川 の空港の天気 - METARとTAF

仁川国際空港 ( RKSI / ICN ) - 韓国 仁川広域市 (ソウル特別市近郊)
飛行場実況気象(Metar)
観測時間11/20 18:00 KST (11/20 09:00 UTC)
風向・風速北北東 3m/s
視程10km以上
天気現象
少しの雲 雲底高度 760m
気温1℃
湿度75%
気圧1026hPa
METARRKSI 200900Z 03006KT 9999 FEW025 01/M03 Q1026 NOSIG
過去の天気等 Google飛行場航空写真 Wunderground天気予報

過去48時間のMETAR

飛行場予報(TAF)
発表時間: 11/20 14:00 KST (11/20 05:00 UTC)
予報対象時間: 20日15時 KST ~ 21日21時 KST
風向・風速東北東 4m/s
視程4,200m
天気現象弱い雪
少しの雲 雲底高度 300m
全天の8割程度の雲 雲底高度 760m
全天を覆う雲 雲底高度 3,050m
20日16時 KST ~ 20日17時 KST に徐々に
風向・風速北北西 4m/s
視程10km以上
天気現象運行に影響にある天気現象が終了
少しの雲 雲底高度 910m
21日2時 KST ~ 21日3時 KST に徐々に
風向・風速南南東 4m/s
21日4時 KST ~ 21日9時 KST に一時的に
風向・風速東北東 4m/s
TAF RKSI 200500Z 2006/2112 07008KT 4200 -SN FEW010 BKN025 OVC100 TNM02/2021Z TX07/2106Z
BECMG 2007/2008 34008KT 9999 NSW FEW030
BECMG 2017/2018 16007KT
TEMPO 2019/2024 06007KT